Time;durP1;ratioP1;P1;durP2;ratioP2;P2;SDS_P1;SDS_P2;PMS_P1;PMS_P2;Temp;Humidity;BMP_temperature;BMP_pressure;BME280_temperature;BME280_humidity;BME280_pressure;Samples;Min_cycle;Max_cycle;Signal;HPM_P1;HPM_P2
2023/04/15 00:01:35;;;;;;;20.40;12.35;;;7.60;99.90;;;;;;4767749;30;20039;-69
2023/04/15 00:04:20;;;;;;;22.90;12.35;;;7.60;99.90;;;;;;4771740;30;20566;-70
2023/04/15 00:11:26;;;;;;;39.83;19.55;;;7.10;99.90;;;;;;4686471;30;20065;-70
2023/04/15 00:13:51;;;;;;;57.42;30.42;;;7.10;99.90;;;;;;4681190;30;20071;-71
2023/04/15 00:20:35;;;;;;;;;;;;;;;;;;;;;
2023/04/15 00:23:31;;;;;;;44.20;25.60;;;6.90;99.90;;;;;;4662226;30;20462;-74
2023/04/15 00:26:35;;;;;;;30.65;19.95;;;6.90;99.90;;;;;;4661024;30;20392;-81
2023/04/15 00:29:27;;;;;;;28.23;18.77;;;6.90;99.90;;;;;;4662770;30;20129;-70
2023/04/15 00:32:10;;;;;;;33.20;16.30;;;6.90;99.90;;;;;;4662047;30;20086;-70
2023/04/15 00:34:36;;;;;;;26.00;15.10;;;6.90;99.90;;;;;;4662983;30;20038;-75
2023/04/15 00:37:02;;;;;;;23.17;13.63;;;7.00;99.90;;;;;;4662321;30;20195;-82
2023/04/15 00:43:59;;;;;;;17.85;11.68;;;7.10;99.90;;;;;;4595840;31;20424;-70
2023/04/15 00:46:29;;;;;;;25.92;16.55;;;7.10;99.90;;;;;;4580887;31;20056;-74
2023/04/15 00:50:20;;;;;;;43.97;26.90;;;7.00;99.90;;;;;;4628745;30;20126;-73
2023/04/15 00:52:26;;;;;;;34.92;20.90;;;6.90;99.90;;;;;;4646935;30;20050;-76
2023/04/15 00:55:52;;;;;;;38.83;22.13;;;6.90;99.90;;;;;;4648794;30;20051;-70
2023/04/15 00:58:50;;;;;;;37.38;21.45;;;7.00;99.90;;;;;;4691925;30;20499;-71
2023/04/15 01:01:20;;;;;;;35.40;21.27;;;7.00;99.90;;;;;;4704514;30;20053;-86
2023/04/15 01:04:26;;;;;;;34.03;21.25;;;7.00;99.90;;;;;;4703712;30;20061;-71
2023/04/15 01:06:52;;;;;;;28.73;16.88;;;7.10;99.90;;;;;;4651263;30;20055;-71
2023/04/15 01:09:57;;;;;;;25.80;15.77;;;7.00;99.90;;;;;;4652002;30;20059;-86
2023/04/15 01:12:38;;;;;;;30.13;17.67;;;7.00;99.90;;;;;;4635025;30;20054;-74
2023/04/15 01:19:47;;;;;;;36.40;24.08;;;6.90;99.90;;;;;;4592419;30;20114;-82
2023/04/15 01:22:52;;;;;;;30.40;21.45;;;6.90;99.90;;;;;;4607068;30;20204;-84
2023/04/15 01:25:59;;;;;;;30.98;17.58;;;6.90;99.90;;;;;;4642697;30;20086;-78
2023/04/15 01:32:06;;;;;;;28.65;18.33;;;6.90;99.90;;;;;;4630796;30;20055;-73
2023/04/15 01:35:14;;;;;;;28.77;20.58;;;6.90;99.90;;;;;;4590603;31;20063;-75
2023/04/15 01:38:15;;;;;;;30.08;22.00;;;6.90;99.90;;;;;;4622217;31;20050;-70
2023/04/15 01:41:08;;;;;;;31.57;24.30;;;6.90;99.90;;;;;;4614852;30;20082;-73
2023/04/15 01:43:36;;;;;;;34.17;25.38;;;6.80;99.90;;;;;;4641472;30;20285;-71
2023/04/15 01:46:02;;;;;;;37.55;26.38;;;6.70;99.90;;;;;;4648152;30;20039;-82
2023/04/15 01:48:48;;;;;;;36.00;24.42;;;6.70;99.90;;;;;;4648604;30;20378;-73
2023/04/15 01:51:15;;;;;;;30.73;23.27;;;6.60;99.90;;;;;;4639215;30;20055;-77
2023/04/15 01:53:41;;;;;;;26.85;19.63;;;6.60;99.90;;;;;;4649919;30;20122;-72
2023/04/15 01:57:10;;;;;;;26.85;18.23;;;6.60;99.90;;;;;;4728882;30;20064;-85
2023/04/15 01:59:53;;;;;;;33.78;17.67;;;6.60;99.90;;;;;;4769665;30;20532;-79
2023/04/15 02:02:26;;;;;;;26.80;17.75;;;6.60;99.90;;;;;;4787697;29;20514;-84
2023/04/15 02:06:07;;;;;;;26.33;18.35;;;6.50;99.90;;;;;;4789954;29;20516;-83
2023/04/15 02:09:00;;;;;;;26.83;18.73;;;6.40;99.90;;;;;;4741621;29;20116;-82
2023/04/15 02:11:26;;;;;;;28.90;20.02;;;6.40;99.90;;;;;;4804739;29;20125;-68
2023/04/15 02:13:52;;;;;;;27.60;18.50;;;6.20;99.90;;;;;;4805625;29;20034;-81
2023/04/15 02:16:18;;;;;;;30.48;19.92;;;6.20;99.90;;;;;;4790445;29;20403;-84
2023/04/15 02:18:45;;;;;;;28.27;19.20;;;6.30;99.90;;;;;;4790523;29;20035;-68
2023/04/15 02:21:50;;;;;;;26.85;19.15;;;6.30;99.90;;;;;;4791373;29;20116;-78
2023/04/15 02:28:16;;;;;;;34.25;23.60;;;6.20;99.90;;;;;;4754835;29;20085;-83
2023/04/15 02:30:48;;;;;;;26.20;19.63;;;6.10;99.90;;;;;;4804569;29;20423;-71
2023/04/15 02:33:13;;;;;;;24.75;17.48;;;6.10;99.90;;;;;;4804599;29;20038;-83
2023/04/15 02:35:43;;;;;;;27.13;15.82;;;6.20;99.90;;;;;;4804173;29;20130;-78
2023/04/15 02:38:46;;;;;;;21.23;13.77;;;6.10;99.90;;;;;;4789339;29;20043;-83
2023/04/15 02:41:52;;;;;;;21.40;13.82;;;6.10;99.90;;;;;;4793942;29;20030;-86
2023/04/15 02:44:22;;;;;;;21.25;13.32;;;6.10;99.90;;;;;;4834333;29;20033;-72
2023/04/15 02:54:08;;;;;;;26.50;13.63;;;5.90;99.90;;;;;;4813770;29;20039;-83
2023/04/15 02:56:34;;;;;;;18.92;11.77;;;6.00;99.90;;;;;;4766616;30;20035;-85
2023/04/15 02:59:31;;;;;;;17.00;11.38;;;5.90;99.90;;;;;;4761945;30;20389;-82
2023/04/15 03:02:55;;;;;;;18.55;12.23;;;5.90;99.90;;;;;;4760995;30;20044;-81
2023/04/15 03:06:33;;;;;;;21.55;13.57;;;5.80;99.90;;;;;;4676370;30;20494;-84
2023/04/15 03:09:40;;;;;;;17.92;12.32;;;5.80;99.90;;;;;;4708277;30;20127;-73
2023/04/15 03:12:06;;;;;;;19.38;11.70;;;5.80;99.90;;;;;;4666076;30;20042;-76
2023/04/15 03:14:32;;;;;;;16.90;10.80;;;5.80;99.90;;;;;;4666202;30;20519;-81
2023/04/15 03:16:58;;;;;;;18.25;11.43;;;5.80;99.90;;;;;;4659638;30;20070;-81
2023/04/15 03:20:16;;;;;;;23.27;13.30;;;5.80;99.90;;;;;;4664277;30;20050;-83
2023/04/15 03:22:42;;;;;;;20.88;13.65;;;5.90;99.90;;;;;;4665982;30;20125;-82
2023/04/15 03:25:42;;;;;;;22.67;15.10;;;5.90;99.90;;;;;;4666007;30;20030;-84
2023/04/15 03:28:08;;;;;;;25.23;14.27;;;5.80;99.90;;;;;;4668478;30;20053;-84
2023/04/15 03:31:30;;;;;;;26.80;15.73;;;5.80;99.90;;;;;;4747743;30;20043;-83
2023/04/15 03:33:56;;;;;;;25.95;15.55;;;5.80;99.90;;;;;;4753127;30;20098;-73
2023/04/15 03:37:16;;;;;;;21.10;14.20;;;5.80;99.90;;;;;;4767626;30;20114;-83
2023/04/15 03:40:11;;;;;;;21.95;13.52;;;5.80;99.90;;;;;;4723622;30;20157;-77
2023/04/15 03:43:47;;;;;;;22.75;13.82;;;5.80;99.90;;;;;;4739361;30;20557;-84
2023/04/15 03:47:00;;;;;;;17.77;11.05;;;5.80;99.90;;;;;;4722499;30;20478;-83
2023/04/15 03:50:10;;;;;;;;;;;;;;;;;;;;;
2023/04/15 03:52:57;;;;;;;19.92;11.45;;;5.90;99.90;;;;;;4664785;30;20126;-80
2023/04/15 03:55:23;;;;;;;17.55;11.25;;;5.80;99.90;;;;;;4669227;30;20599;-79
2023/04/15 03:57:48;;;;;;;19.63;11.05;;;5.80;99.90;;;;;;4668492;30;20053;-83
2023/04/15 04:01:08;;;;;;;25.65;12.27;;;5.80;99.90;;;;;;4676934;30;20074;-83
2023/04/15 04:03:40;;;;;;;18.38;11.10;;;5.70;99.90;;;;;;4647781;30;20051;-82
2023/04/15 04:06:26;;;;;;;26.13;11.85;;;5.70;99.90;;;;;;4677568;30;20057;-83
2023/04/15 04:08:52;;;;;;;19.83;11.75;;;5.70;99.90;;;;;;4681091;30;20152;-79
2023/04/15 04:14:28;;;;;;;25.63;13.68;;;5.90;99.90;;;;;;4657501;30;20099;-79
2023/04/15 04:17:20;;;;;;;25.23;10.55;;;6.40;99.90;;;;;;4661844;30;20575;-81
2023/04/15 04:19:50;;;;;;;20.02;10.73;;;7.40;99.90;;;;;;4661994;30;20532;-74
2023/04/15 04:22:16;;;;;;;14.85;9.35;;;8.20;99.90;;;;;;4668734;30;20042;-77
2023/04/15 04:24:42;;;;;;;14.40;8.23;;;8.80;99.90;;;;;;4678878;30;20054;-80
2023/04/15 04:27:07;;;;;;;14.70;8.63;;;9.50;99.90;;;;;;4679296;30;20411;-78
2023/04/15 04:30:16;;;;;;;12.38;7.53;;;10.30;99.90;;;;;;4678739;30;20050;-84
2023/04/15 04:33:07;;;;;;;17.65;9.90;;;10.90;99.90;;;;;;4665964;30;20554;-82
2023/04/15 04:35:36;;;;;;;18.17;8.85;;;11.10;99.90;;;;;;4682254;30;20038;-71
2023/04/15 04:38:19;;;;;;;22.27;11.38;;;10.70;99.90;;;;;;4683557;30;20062;-79
2023/04/15 04:40:45;;;;;;;23.52;10.68;;;11.70;99.90;;;;;;4783039;30;20466;-83
2023/04/15 04:43:53;;;;;;;28.10;11.23;;;11.10;99.90;;;;;;4799137;30;20031;-85
2023/04/15 04:46:48;;;;;;;14.55;7.50;;;11.00;99.90;;;;;;4755983;30;20051;-86
2023/04/15 04:49:15;;;;;;;19.73;9.43;;;12.30;99.90;;;;;;4721097;30;20048;-86
2023/04/15 04:51:59;;;;;;;17.27;9.98;;;12.90;99.30;;;;;;4743027;30;20035;-70
2023/04/15 04:58:33;;;;;;;14.57;8.38;;;14.70;96.60;;;;;;4651579;30;20054;-78
2023/04/15 05:01:13;;;;;;;15.93;9.15;;;15.60;92.60;;;;;;4665002;30;20039;-84
2023/04/15 05:04:05;;;;;;;23.25;12.90;;;15.90;91.10;;;;;;4663968;30;20117;-85
2023/04/15 05:10:05;;;;;;;45.97;24.92;;;17.30;90.60;;;;;;4635856;30;20054;-83
2023/04/15 05:12:37;;;;;;;29.10;15.73;;;17.60;87.30;;;;;;4675776;30;20058;-84
2023/04/15 05:19:03;;;;;;;18.63;12.93;;;15.20;90.10;;;;;;4672651;30;20030;-81
2023/04/15 05:22:09;;;;;;;17.52;11.35;;;14.20;90.90;;;;;;4640548;30;20130;-82
2023/04/15 05:24:37;;;;;;;16.38;10.65;;;13.40;92.50;;;;;;4749531;30;20072;-81
2023/04/15 05:27:07;;;;;;;18.10;10.18;;;12.70;94.00;;;;;;4788754;29;20133;-82
2023/04/15 05:29:36;;;;;;;12.02;6.70;;;12.40;95.10;;;;;;4802838;29;20130;-82
2023/04/15 05:32:02;;;;;;;14.48;6.85;;;12.00;95.50;;;;;;4800906;29;20031;-82
2023/04/15 05:34:36;;;;;;;16.35;7.38;;;11.70;96.30;;;;;;4878030;29;20053;-79
2023/04/15 05:37:02;;;;;;;12.52;7.07;;;11.30;97.90;;;;;;4897916;29;20072;-76
2023/04/15 05:39:43;;;;;;;18.15;8.02;;;11.50;99.90;;;;;;4898930;29;20072;-80
2023/04/15 05:42:24;;;;;;;23.65;9.02;;;11.50;99.90;;;;;;4881540;29;20044;-80
2023/04/15 05:44:58;;;;;;;21.38;10.57;;;11.60;99.90;;;;;;4897730;29;20515;-79
2023/04/15 05:47:33;;;;;;;18.70;9.70;;;11.80;99.90;;;;;;4897740;29;20107;-77
2023/04/15 05:50:20;;;;;;;16.75;7.88;;;11.90;99.90;;;;;;4876843;29;20103;-78
2023/04/15 05:53:06;;;;;;;13.98;7.47;;;12.10;99.90;;;;;;4882311;29;20089;-77
2023/04/15 05:55:42;;;;;;;14.52;7.75;;;12.30;99.90;;;;;;4898148;29;20416;-76
2023/04/15 05:58:08;;;;;;;18.70;9.65;;;12.40;99.90;;;;;;4906007;29;20110;-78
2023/04/15 06:00:56;;;;;;;18.98;10.02;;;12.60;99.90;;;;;;4908669;29;20021;-70
2023/04/15 06:03:30;;;;;;;17.40;9.70;;;12.70;99.90;;;;;;4901911;29;20029;-79
2023/04/15 06:05:59;;;;;;;15.75;9.05;;;12.70;99.90;;;;;;4899101;29;20032;-78
2023/04/15 06:08:32;;;;;;;16.73;9.43;;;12.70;99.90;;;;;;4882041;29;20434;-79
2023/04/15 06:11:00;;;;;;;18.40;10.63;;;12.80;99.90;;;;;;4898856;29;20062;-71
2023/04/15 06:13:33;;;;;;;19.33;10.98;;;12.80;99.90;;;;;;4900275;29;20034;-78
2023/04/15 06:16:05;;;;;;;20.20;11.77;;;12.90;99.90;;;;;;4864478;29;20117;-72
2023/04/15 06:19:09;;;;;;;21.52;11.45;;;13.10;99.90;;;;;;4852255;29;20517;-72
2023/04/15 06:21:48;;;;;;;18.38;10.63;;;13.10;99.90;;;;;;4832858;29;20080;-70
2023/04/15 06:24:30;;;;;;;20.00;11.75;;;13.20;99.90;;;;;;4842288;29;20056;-73
2023/04/15 06:27:01;;;;;;;21.30;12.20;;;13.30;99.90;;;;;;4852370;29;20124;-79
2023/04/15 06:29:26;;;;;;;28.73;13.57;;;13.40;99.90;;;;;;4847186;29;20056;-77
2023/04/15 06:32:08;;;;;;;18.58;10.68;;;13.70;99.90;;;;;;4848232;29;20042;-78
2023/04/15 06:35:11;;;;;;;16.63;11.27;;;14.10;99.90;;;;;;4853043;29;20080;-78
2023/04/15 06:37:50;;;;;;;20.27;11.20;;;14.40;99.90;;;;;;4853071;29;20432;-76
2023/04/15 06:40:21;;;;;;;19.08;10.25;;;14.70;98.70;;;;;;4853319;29;20056;-77
2023/04/15 06:43:06;;;;;;;27.30;16.67;;;14.80;98.70;;;;;;4850281;29;20046;-77
2023/04/15 06:46:13;;;;;;;;;;;;;;;;;;;;;
2023/04/15 06:49:04;;;;;;;21.10;11.48;;;15.10;97.60;;;;;;4860266;29;20059;-77
2023/04/15 06:52:07;;;;;;;21.65;12.60;;;15.40;96.00;;;;;;4902331;29;20499;-73
2023/04/15 06:54:39;;;;;;;21.10;10.68;;;15.70;95.80;;;;;;4902317;29;20043;-78
2023/04/15 06:57:32;;;;;;;23.95;12.90;;;15.90;95.30;;;;;;4913073;29;20036;-78
2023/04/15 07:00:10;;;;;;;21.58;10.38;;;16.10;94.40;;;;;;4902722;29;20024;-74
2023/04/15 07:02:55;;;;;;;21.25;11.65;;;16.00;95.80;;;;;;4897908;29;20499;-77
2023/04/15 07:06:06;;;;;;;18.25;6.65;;;16.00;95.80;;;;;;4897887;29;20089;-77
2023/04/15 07:08:38;;;;;;;12.73;5.18;;;16.20;93.70;;;;;;4890619;29;20119;-78
2023/04/15 07:11:36;;;;;;;12.02;6.07;;;16.30;92.60;;;;;;4870593;29;20404;-76
2023/04/15 07:18:20;;;;;;;10.20;5.00;;;16.50;92.80;;;;;;4840244;29;20045;-75
2023/04/15 07:24:16;;;;;;;12.40;4.95;;;16.70;90.80;;;;;;4819960;29;20080;-76
2023/04/15 07:27:11;;;;;;;11.13;5.65;;;17.00;91.60;;;;;;4824722;29;20581;-78
2023/04/15 07:30:04;;;;;;;7.28;4.75;;;17.10;91.00;;;;;;4744740;30;20063;-78
2023/04/15 07:33:13;;;;;;;6.10;3.55;;;17.20;90.20;;;;;;4733155;30;20177;-79
2023/04/15 07:35:47;;;;;;;4.07;2.72;;;17.30;88.40;;;;;;4745007;30;20433;-73
2023/04/15 07:38:43;;;;;;;3.25;2.28;;;17.10;87.20;;;;;;4741587;30;20032;-77
2023/04/15 07:41:34;;;;;;;8.65;3.58;;;17.20;85.60;;;;;;4723432;30;20135;-76
2023/04/15 07:44:38;;;;;;;4.82;2.38;;;17.40;87.30;;;;;;4728464;30;20040;-78
2023/04/15 07:47:35;;;;;;;2.70;1.95;;;17.50;86.30;;;;;;4684171;30;20565;-75
2023/04/15 07:51:24;;;;;;;6.85;2.60;;;17.60;86.50;;;;;;4681469;30;20050;-72
2023/04/15 07:54:02;;;;;;;6.50;2.55;;;17.80;85.40;;;;;;4684608;30;20120;-75
2023/04/15 07:56:37;;;;;;;7.20;2.53;;;17.80;86.70;;;;;;4683925;30;20161;-75
2023/04/15 07:59:04;;;;;;;8.25;3.58;;;17.70;85.20;;;;;;4711336;30;20124;-74
2023/04/15 08:01:31;;;;;;;7.60;2.28;;;17.70;83.30;;;;;;4714417;30;20044;-74
2023/04/15 08:04:56;;;;;;;11.93;5.10;;;17.70;82.10;;;;;;4716996;30;20068;-74
2023/04/15 08:07:22;;;;;;;9.40;4.20;;;17.80;82.10;;;;;;4719503;30;20044;-73
2023/04/15 08:14:07;;;;;;;4.40;1.83;;;17.80;83.60;;;;;;4773429;29;20492;-75
2023/04/15 08:17:04;;;;;;;2.33;1.67;;;17.60;75.80;;;;;;4746410;30;20032;-76
2023/04/15 08:19:39;;;;;;;2.30;1.27;;;17.40;76.80;;;;;;4760856;30;20052;-76
2023/04/15 08:22:16;;;;;;;4.68;1.52;;;17.50;80.90;;;;;;4766331;30;20036;-76
2023/04/15 08:25:26;;;;;;;2.17;1.67;;;17.20;83.80;;;;;;4765942;30;20032;-77
2023/04/15 08:31:25;;;;;;;6.20;2.20;;;17.20;85.30;;;;;;4766227;30;20412;-71
2023/04/15 08:34:47;;;;;;;5.78;1.88;;;17.50;83.70;;;;;;4766119;30;20127;-76
2023/04/15 08:37:30;;;;;;;4.90;1.48;;;17.80;80.90;;;;;;4766298;30;20040;-76
2023/04/15 08:43:55;;;;;;;2.15;1.48;;;17.70;77.10;;;;;;4797878;29;20035;-75
2023/04/15 08:47:55;;;;;;;8.18;1.73;;;17.50;76.70;;;;;;4787614;29;20385;-74
2023/04/15 08:51:27;;;;;;;3.63;2.20;;;17.50;81.60;;;;;;4812688;29;20141;-75
2023/04/15 08:54:17;;;;;;;2.38;1.23;;;17.40;83.10;;;;;;4850856;29;20695;-76
2023/04/15 08:57:06;;;;;;;9.30;0.93;;;17.20;81.00;;;;;;4872896;29;20033;-74
2023/04/15 08:59:32;;;;;;;1.42;0.80;;;17.10;76.90;;;;;;4872979;29;20021;-74
2023/04/15 09:01:58;;;;;;;3.35;1.98;;;17.10;81.80;;;;;;4877332;29;20033;-74
2023/04/15 09:04:23;;;;;;;2.55;1.10;;;17.00;81.30;;;;;;4870282;29;20029;-75
2023/04/15 09:08:06;;;;;;;3.13;1.20;;;17.00;79.80;;;;;;4877168;29;20033;-74
2023/04/15 09:10:42;;;;;;;2.17;1.10;;;17.40;85.20;;;;;;4783463;29;20500;-75
2023/04/15 09:13:40;;;;;;;6.35;1.48;;;17.50;81.40;;;;;;4786768;30;20486;-74
2023/04/15 09:17:06;;;;;;;2.10;1.25;;;17.70;85.70;;;;;;4743715;30;20059;-76
2023/04/15 09:19:50;;;;;;;3.83;2.03;;;17.80;82.50;;;;;;4716098;30;20070;-76
2023/04/15 09:22:31;;;;;;;1.30;0.90;;;18.00;81.20;;;;;;4716894;30;20065;-75
2023/04/15 09:25:48;;;;;;;3.17;1.67;;;18.20;78.60;;;;;;4716847;30;20398;-76
2023/04/15 09:28:29;;;;;;;2.17;1.13;;;17.80;80.00;;;;;;4665308;30;20046;-74
2023/04/15 09:30:59;;;;;;;1.63;1.20;;;17.90;80.10;;;;;;4663149;30;20054;-75
2023/04/15 09:33:26;;;;;;;1.00;0.90;;;17.90;78.40;;;;;;4663786;30;20130;-75
2023/04/15 09:36:05;;;;;;;1.73;0.95;;;17.80;79.80;;;;;;4663710;30;20114;-74
2023/04/15 09:38:55;;;;;;;1.98;1.30;;;17.80;79.60;;;;;;4659725;30;20162;-76
2023/04/15 09:42:16;;;;;;;2.35;1.02;;;17.90;80.60;;;;;;4665300;30;20062;-74
2023/04/15 09:45:06;;;;;;;2.10;0.98;;;18.00;80.50;;;;;;4648968;30;20160;-75
2023/04/15 09:48:36;;;;;;;1.40;1.20;;;18.50;82.10;;;;;;4726649;30;20088;-75
2023/04/15 09:51:50;;;;;;;3.05;1.23;;;18.70;78.20;;;;;;4677041;30;20051;-75
2023/04/15 09:54:36;;;;;;;2.10;1.40;;;18.50;75.20;;;;;;4670667;30;20046;-72
2023/04/15 09:57:43;;;;;;;2.88;1.35;;;18.30;75.90;;;;;;4681183;30;20037;-75
2023/04/15 10:01:01;;;;;;;3.97;1.65;;;18.10;80.30;;;;;;4681756;30;20058;-74
2023/04/15 10:04:25;;;;;;;2.08;1.70;;;17.60;78.00;;;;;;4682764;30;20050;-73
2023/04/15 10:07:51;;;;;;;1.77;1.20;;;17.90;77.60;;;;;;4733538;30;20059;-75
2023/04/15 10:10:50;;;;;;;2.42;1.30;;;18.00;79.60;;;;;;4693646;30;20061;-75
2023/04/15 10:13:56;;;;;;;2.15;0.90;;;18.00;79.60;;;;;;4689107;30;20535;-75
2023/04/15 10:16:50;;;;;;;1.00;0.88;;;17.70;75.40;;;;;;4698472;30;20041;-76
2023/04/15 10:19:26;;;;;;;1.45;1.00;;;17.70;77.70;;;;;;4690880;30;20124;-75
2023/04/15 10:21:53;;;;;;;5.22;1.48;;;18.10;78.30;;;;;;4697729;30;20046;-74
2023/04/15 10:24:20;;;;;;;2.20;1.60;;;18.30;80.60;;;;;;4709873;30;20061;-75
2023/04/15 10:27:45;;;;;;;2.90;1.45;;;18.60;79.40;;;;;;4752299;30;20044;-75
2023/04/15 10:30:57;;;;;;;0.88;0.88;;;18.90;79.70;;;;;;4715970;30;20053;-74
2023/04/15 10:33:24;;;;;;;1.33;1.00;;;18.60;77.50;;;;;;4733435;30;20076;-75
2023/04/15 10:35:51;;;;;;;1.90;1.50;;;18.60;78.90;;;;;;4733402;30;20037;-74
2023/04/15 10:38:39;;;;;;;9.60;1.40;;;18.40;77.80;;;;;;4733288;30;20200;-75
2023/04/15 10:44:56;;;;;;;2.75;1.63;;;18.60;76.50;;;;;;4722338;30;20049;-75
2023/04/15 10:47:37;;;;;;;3.13;1.25;;;18.20;73.20;;;;;;4747242;30;20052;-75
2023/04/15 10:50:36;;;;;;;5.22;1.33;;;18.10;76.30;;;;;;4749379;30;20050;-75
2023/04/15 10:53:06;;;;;;;3.08;1.50;;;18.10;79.10;;;;;;4750652;30;20045;-74
2023/04/15 10:55:46;;;;;;;2.97;1.02;;;18.30;79.90;;;;;;4750379;30;20086;-74
2023/04/15 10:59:00;;;;;;;2.10;0.88;;;18.00;78.60;;;;;;4750926;30;20044;-75
2023/04/15 11:01:58;;;;;;;1.92;1.25;;;17.90;79.20;;;;;;4750642;30;20043;-74
2023/04/15 11:04:58;;;;;;;2.05;1.23;;;17.70;80.70;;;;;;4750656;30;20081;-76
2023/04/15 11:08:57;;;;;;;1.98;0.93;;;17.90;78.30;;;;;;4887374;29;20044;-75
2023/04/15 11:11:56;;;;;;;1.48;1.08;;;18.10;78.20;;;;;;4801739;29;20055;-76
2023/04/15 11:14:40;;;;;;;1.35;0.98;;;18.30;77.70;;;;;;4795349;29;20023;-75
2023/04/15 11:17:35;;;;;;;1.58;1.17;;;18.20;77.10;;;;;;4803674;29;20027;-75
2023/04/15 11:20:44;;;;;;;3.58;1.20;;;18.50;76.30;;;;;;4750268;30;20054;-76
2023/04/15 11:23:27;;;;;;;2.15;1.10;;;18.40;73.40;;;;;;4748021;30;20048;-77
2023/04/15 11:26:15;;;;;;;4.68;2.13;;;18.20;74.40;;;;;;4747424;30;20143;-76
2023/04/15 11:29:17;;;;;;;3.05;1.55;;;18.10;76.00;;;;;;4749791;30;20813;-74
2023/04/15 11:32:11;;;;;;;2.78;1.40;;;18.00;75.40;;;;;;4750068;30;20060;-75
2023/04/15 11:35:01;;;;;;;5.13;1.70;;;18.00;75.00;;;;;;4749692;30;20079;-74
2023/04/15 11:37:50;;;;;;;2.38;1.30;;;18.00;76.30;;;;;;4740058;30;20087;-76
2023/04/15 11:40:57;;;;;;;2.42;1.00;;;17.80;73.60;;;;;;4751115;30;20040;-76
2023/04/15 11:44:00;;;;;;;3.15;1.20;;;18.00;74.80;;;;;;4797178;29;20578;-75
2023/04/15 11:46:30;;;;;;;1.23;0.90;;;18.10;76.20;;;;;;4794637;29;20038;-74
2023/04/15 11:48:59;;;;;;;5.55;1.92;;;17.80;73.80;;;;;;4804057;29;20123;-69
2023/04/15 11:51:25;;;;;;;2.65;1.25;;;18.00;77.50;;;;;;4790823;29;20571;-77
2023/04/15 11:53:51;;;;;;;1.98;1.25;;;18.00;75.30;;;;;;4794625;29;20180;-74
2023/04/15 11:57:26;;;;;;;3.22;1.52;;;18.20;76.00;;;;;;4830792;29;20504;-74
2023/04/15 12:04:42;;;;;;;1.92;0.93;;;18.10;77.80;;;;;;4834485;29;20041;-75
2023/04/15 12:07:58;;;;;;;1.48;1.10;;;18.00;75.80;;;;;;4774818;29;20054;-73
2023/04/15 12:14:38;;;;;;;2.05;1.10;;;18.20;77.00;;;;;;4742814;30;20048;-76
2023/04/15 12:17:15;;;;;;;2.00;1.38;;;18.10;73.50;;;;;;4749197;30;20125;-75
2023/04/15 12:20:30;;;;;;;3.15;1.58;;;18.20;75.90;;;;;;4749161;30;20044;-76
2023/04/15 12:23:10;;;;;;;3.53;1.50;;;18.20;75.80;;;;;;4748995;30;20044;-75
2023/04/15 12:25:36;;;;;;;2.35;1.40;;;18.00;75.70;;;;;;4749155;30;20426;-71
2023/04/15 12:28:36;;;;;;;3.53;1.52;;;18.00;78.50;;;;;;4749145;30;20082;-75
2023/04/15 12:31:44;;;;;;;1.25;1.00;;;17.90;77.90;;;;;;4756332;30;20059;-75
2023/04/15 12:34:48;;;;;;;4.20;1.73;;;17.90;76.50;;;;;;4759816;30;20567;-75
2023/04/15 12:38:21;;;;;;;2.42;1.50;;;18.20;74.50;;;;;;4766735;30;20179;-75
2023/04/15 12:41:15;;;;;;;1.50;1.10;;;18.40;78.10;;;;;;4767039;30;20142;-75
2023/04/15 12:44:11;;;;;;;1.20;1.10;;;18.20;79.20;;;;;;4791821;29;20055;-75
2023/04/15 12:46:37;;;;;;;4.88;1.67;;;18.00;79.90;;;;;;4805273;29;20042;-74
2023/04/15 12:49:03;;;;;;;2.95;1.40;;;18.00;80.40;;;;;;4804851;29;20034;-76
2023/04/15 12:51:30;;;;;;;2.70;1.35;;;18.00;79.00;;;;;;4856105;29;20048;-77
2023/04/15 12:57:40;;;;;;;1.98;1.08;;;17.80;80.80;;;;;;4748650;30;20075;-74
2023/04/15 13:03:58;;;;;;;9.10;1.65;;;18.10;83.10;;;;;;4723206;30;20045;-75
2023/04/15 13:07:03;;;;;;;6.97;2.10;;;18.20;84.40;;;;;;4730767;30;20481;-69
2023/04/15 13:09:28;;;;;;;3.92;2.10;;;18.30;84.10;;;;;;4694264;30;20058;-76
2023/04/15 13:12:45;;;;;;;;;;;;;;;;;;;;;
2023/04/15 13:15:24;;;;;;;2.53;1.63;;;18.30;81.40;;;;;;4691832;30;20054;-72
2023/04/15 13:18:41;;;;;;;;;;;;;;;;;;;;;
2023/04/15 13:21:48;;;;;;;4.15;2.25;;;18.50;80.30;;;;;;4669683;30;20053;-74
2023/04/15 13:25:32;;;;;;;;;;;;;;;;;;;;;
2023/04/15 13:28:06;;;;;;;14.20;7.95;;;18.60;79.80;;;;;;4665541;30;20045;-73
2023/04/15 13:30:32;;;;;;;15.82;9.57;;;18.40;81.00;;;;;;4696013;30;20057;-73
2023/04/15 13:32:57;;;;;;;11.82;7.32;;;18.10;79.20;;;;;;4709895;30;20028;-73
2023/04/15 13:35:23;;;;;;;4.70;2.70;;;17.90;78.50;;;;;;4731098;30;20037;-72
2023/04/15 13:37:49;;;;;;;11.13;4.90;;;17.80;78.20;;;;;;4730699;30;20037;-74
2023/04/15 13:44:11;;;;;;;4.97;2.47;;;17.50;79.80;;;;;;4780628;29;20419;-74
2023/04/15 13:47:07;;;;;;;3.53;2.00;;;17.20;82.20;;;;;;4799683;29;20128;-74
2023/04/15 13:49:53;;;;;;;5.35;2.22;;;17.00;87.10;;;;;;4793689;29;20039;-74
2023/04/15 13:52:18;;;;;;;4.07;1.98;;;16.30;84.00;;;;;;4801509;29;20535;-73
2023/04/15 13:58:57;;;;;;;6.00;2.22;;;15.70;88.40;;;;;;4804434;29;20046;-73
2023/04/15 14:01:37;;;;;;;3.00;2.05;;;15.40;90.40;;;;;;4804718;29;20050;-70
2023/04/15 14:04:14;;;;;;;3.78;1.90;;;15.30;91.00;;;;;;4830393;29;20037;-73
2023/04/15 14:06:40;;;;;;;4.78;1.80;;;15.30;92.20;;;;;;4880579;29;20037;-69
2023/04/15 14:09:53;;;;;;;2.92;1.52;;;15.20;91.80;;;;;;4880819;29;20029;-76
2023/04/15 14:12:19;;;;;;;3.00;1.10;;;15.30;92.20;;;;;;4801291;29;20053;-75
2023/04/15 14:15:25;;;;;;;1.20;1.10;;;14.90;92.20;;;;;;4798195;29;20054;-74
2023/04/15 14:18:15;;;;;;;1.42;1.20;;;14.80;92.20;;;;;;4812709;29;20118;-74
2023/04/15 14:20:45;;;;;;;3.08;1.70;;;14.70;92.70;;;;;;4821580;29;20034;-73
2023/04/15 14:23:19;;;;;;;2.03;1.52;;;14.60;93.10;;;;;;4816145;29;20054;-72
2023/04/15 14:25:45;;;;;;;7.10;4.13;;;14.80;94.20;;;;;;4822865;29;20075;-74
2023/04/15 14:28:11;;;;;;;4.82;2.55;;;14.80;93.50;;;;;;4822788;29;20046;-74
2023/04/15 14:30:37;;;;;;;4.35;2.65;;;14.90;93.60;;;;;;4822994;29;20415;-71
2023/04/15 14:34:06;;;;;;;3.22;2.28;;;15.00;94.50;;;;;;4822934;29;20026;-74
2023/04/15 14:36:41;;;;;;;5.90;3.50;;;15.10;96.00;;;;;;4816573;29;20052;-73
2023/04/15 14:39:35;;;;;;;3.63;1.85;;;15.20;95.70;;;;;;4822993;29;20038;-74
2023/04/15 14:43:04;;;;;;;2.17;1.63;;;15.10;93.90;;;;;;4815286;29;20050;-70
2023/04/15 14:46:01;;;;;;;4.10;1.52;;;15.00;97.40;;;;;;4795421;29;20458;-75
2023/04/15 14:48:39;;;;;;;3.10;1.85;;;15.00;97.50;;;;;;4895430;29;20048;-71
2023/04/15 14:54:35;;;;;;;3.08;1.60;;;14.70;94.40;;;;;;4859278;29;20516;-76
2023/04/15 14:57:57;;;;;;;4.18;2.30;;;14.60;94.70;;;;;;4849854;29;20445;-75
2023/04/15 15:00:49;;;;;;;3.63;2.30;;;14.50;93.90;;;;;;4840999;29;20498;-70
2023/04/15 15:03:25;;;;;;;2.88;2.00;;;14.60;94.10;;;;;;4849468;29;20038;-74
2023/04/15 15:05:53;;;;;;;6.20;2.03;;;14.70;94.40;;;;;;4857581;29;20042;-76
2023/04/15 15:08:54;;;;;;;3.28;1.58;;;14.70;93.80;;;;;;4854771;29;20497;-76
2023/04/15 15:11:38;;;;;;;4.18;1.88;;;14.80;94.50;;;;;;4840722;29;20518;-71
2023/04/15 15:14:04;;;;;;;2.72;1.50;;;14.80;93.50;;;;;;4852462;29;20053;-69
2023/04/15 15:16:30;;;;;;;3.67;2.05;;;14.80;93.70;;;;;;4848959;29;20040;-75
2023/04/15 15:18:56;;;;;;;4.35;2.67;;;14.60;93.40;;;;;;4858314;29;20417;-72
2023/04/15 15:21:22;;;;;;;3.55;1.80;;;14.70;93.20;;;;;;4848174;29;20102;-72
2023/04/15 15:23:52;;;;;;;2.63;1.80;;;14.70;93.10;;;;;;4852052;29;20041;-75
2023/04/15 15:26:54;;;;;;;3.97;2.47;;;14.70;92.80;;;;;;4849768;29;20029;-77
2023/04/15 15:29:54;;;;;;;3.90;2.40;;;14.70;92.80;;;;;;4911973;29;20051;-77
2023/04/15 15:32:41;;;;;;;6.15;2.67;;;14.80;92.90;;;;;;4916567;29;20040;-77
2023/04/15 15:35:21;;;;;;;5.60;2.85;;;14.80;92.80;;;;;;4916516;29;20527;-79
2023/04/15 15:37:47;;;;;;;4.75;2.33;;;14.80;92.30;;;;;;4916499;29;20075;-77
2023/04/15 15:40:36;;;;;;;4.35;2.08;;;14.80;92.50;;;;;;4916909;29;20107;-74
2023/04/15 15:43:19;;;;;;;2.97;1.88;;;14.70;91.90;;;;;;4915968;29;20024;-75
2023/04/15 15:46:16;;;;;;;2.97;2.10;;;14.60;91.90;;;;;;4916148;29;20028;-75
2023/04/15 15:49:07;;;;;;;6.00;2.35;;;14.60;91.80;;;;;;4863926;29;20043;-76
2023/04/15 15:54:33;;;;;;;5.10;1.85;;;14.50;92.60;;;;;;4839674;29;20054;-76
2023/04/15 15:57:00;;;;;;;4.88;2.30;;;14.60;92.90;;;;;;4839755;29;20368;-77
2023/04/15 15:59:26;;;;;;;3.28;2.20;;;14.60;92.90;;;;;;4839448;29;20128;-79
2023/04/15 16:02:22;;;;;;;5.78;2.65;;;14.50;93.60;;;;;;4839689;29;20155;-77
2023/04/15 16:05:09;;;;;;;6.00;2.60;;;14.50;94.00;;;;;;4784966;30;20424;-77
2023/04/15 16:08:08;;;;;;;6.13;3.13;;;14.40;94.20;;;;;;4785024;30;20043;-76
2023/04/15 16:10:45;;;;;;;2.97;2.13;;;14.50;93.70;;;;;;4784495;30;20063;-77